sensor_id;sensor_type;location;lat;lon;timestamp;pressure;altitude;pressure_sealevel;temperature;humidity
13476;BME280;6810;63.824;20.288;2023-05-01T05:59:12;100985.69;;;4.74;61.86
13476;BME280;6810;63.824;20.288;2023-05-01T06:02:00;100974.34;;;4.72;62.24
13476;BME280;6810;63.824;20.288;2023-05-01T06:04:48;100993.25;;;4.86;61.00
13476;BME280;6810;63.824;20.288;2023-05-01T06:07:35;100967.06;;;4.78;60.66
13476;BME280;6810;63.824;20.288;2023-05-01T06:10:22;100993.72;;;4.98;61.99
13476;BME280;6810;63.824;20.288;2023-05-01T06:13:10;100993.56;;;5.03;61.47
13476;BME280;6810;63.824;20.288;2023-05-01T06:15:57;100994.31;;;5.08;61.92
13476;BME280;6810;63.824;20.288;2023-05-01T06:18:44;100994.13;;;5.14;60.80
13476;BME280;6810;63.824;20.288;2023-05-01T06:21:32;100996.59;;;5.18;61.08
13476;BME280;6810;63.824;20.288;2023-05-01T06:24:19;101001.69;;;5.24;61.17
13476;BME280;6810;63.824;20.288;2023-05-01T06:27:08;100998.00;;;5.30;60.73
13476;BME280;6810;63.824;20.288;2023-05-01T06:29:55;100989.22;;;5.29;61.14
13476;BME280;6810;63.824;20.288;2023-05-01T06:32:42;100989.25;;;5.28;61.10
13476;BME280;6810;63.824;20.288;2023-05-01T06:35:30;101004.50;;;5.46;60.91
13476;BME280;6810;63.824;20.288;2023-05-01T06:38:17;100997.41;;;5.48;61.20
13476;BME280;6810;63.824;20.288;2023-05-01T06:41:05;100997.25;;;5.53;60.18
13476;BME280;6810;63.824;20.288;2023-05-01T06:43:52;100997.97;;;5.58;60.03
13476;BME280;6810;63.824;20.288;2023-05-01T06:46:39;100994.28;;;5.62;60.16
13476;BME280;6810;63.824;20.288;2023-05-01T06:49:27;100971.53;;;5.58;59.87
13476;BME280;6810;63.824;20.288;2023-05-01T06:52:14;100993.09;;;5.70;60.04
13476;BME280;6810;63.824;20.288;2023-05-01T06:55:01;100996.31;;;5.80;59.63
13476;BME280;6810;63.824;20.288;2023-05-01T06:57:49;100987.41;;;5.84;59.47
13476;BME280;6810;63.824;20.288;2023-05-01T07:00:51;100928.53;;;5.53;59.37
13476;BME280;6810;63.824;20.288;2023-05-01T07:03:38;100993.97;;;5.97;60.41
13476;BME280;6810;63.824;20.288;2023-05-01T07:06:25;100991.13;;;6.03;60.09
13476;BME280;6810;63.824;20.288;2023-05-01T07:09:12;100984.84;;;6.05;59.16
13476;BME280;6810;63.824;20.288;2023-05-01T07:11:59;100989.88;;;6.13;58.94
13476;BME280;6810;63.824;20.288;2023-05-01T07:14:46;100980.84;;;6.18;58.98
13476;BME280;6810;63.824;20.288;2023-05-01T07:17:33;100973.69;;;6.22;59.50
13476;BME280;6810;63.824;20.288;2023-05-01T07:20:20;100976.03;;;6.29;59.09
13476;BME280;6810;63.824;20.288;2023-05-01T07:23:07;100918.88;;;6.01;59.42
13476;BME280;6810;63.824;20.288;2023-05-01T07:25:55;100972.06;;;6.41;58.68
13476;BME280;6810;63.824;20.288;2023-05-01T07:28:42;100962.34;;;6.41;58.35
13476;BME280;6810;63.824;20.288;2023-05-01T07:31:29;100919.81;;;6.23;58.38
13476;BME280;6810;63.824;20.288;2023-05-01T07:34:16;100979.25;;;6.60;58.52
13476;BME280;6810;63.824;20.288;2023-05-01T07:37:03;100985.19;;;6.67;57.97
13476;BME280;6810;63.824;20.288;2023-05-01T07:39:50;100982.25;;;6.74;58.39
13476;BME280;6810;63.824;20.288;2023-05-01T07:42:37;100978.50;;;6.80;57.68
13476;BME280;6810;63.824;20.288;2023-05-01T07:45:24;100980.91;;;6.86;57.74
13476;BME280;6810;63.824;20.288;2023-05-01T07:48:12;100970.22;;;6.89;57.59
13476;BME280;6810;63.824;20.288;2023-05-01T07:51:02;100941.38;;;6.81;57.26
13476;BME280;6810;63.824;20.288;2023-05-01T07:53:49;100850.66;;;6.32;57.34
13476;BME280;6810;63.824;20.288;2023-05-01T07:56:36;100960.84;;;7.02;57.09
13476;BME280;6810;63.824;20.288;2023-05-01T07:59:23;100960.66;;;7.06;57.19
13476;BME280;6810;63.824;20.288;2023-05-01T08:02:10;100932.00;;;6.94;56.82
13476;BME280;6810;63.824;20.288;2023-05-01T08:04:58;100956.66;;;7.18;55.99
13476;BME280;6810;63.824;20.288;2023-05-01T08:07:45;100946.66;;;7.25;56.18
13476;BME280;6810;63.824;20.288;2023-05-01T08:10:32;100918.06;;;7.11;55.71
13476;BME280;6810;63.824;20.288;2023-05-01T08:13:19;100958.34;;;7.41;55.55
13476;BME280;6810;63.824;20.288;2023-05-01T08:16:07;100952.81;;;7.47;55.59
13476;BME280;6810;63.824;20.288;2023-05-01T08:18:54;100956.91;;;7.54;55.41
13476;BME280;6810;63.824;20.288;2023-05-01T08:21:41;100954.00;;;7.60;55.24
13476;BME280;6810;63.824;20.288;2023-05-01T08:24:28;100959.91;;;7.66;54.87
13476;BME280;6810;63.824;20.288;2023-05-01T08:27:16;100964.09;;;7.72;54.28
13476;BME280;6810;63.824;20.288;2023-05-01T08:30:03;100974.47;;;7.78;54.10
13476;BME280;6810;63.824;20.288;2023-05-01T08:32:51;100970.81;;;7.80;53.98
13476;BME280;6810;63.824;20.288;2023-05-01T08:35:37;100973.94;;;7.90;53.63
13476;BME280;6810;63.824;20.288;2023-05-01T08:38:25;100973.66;;;7.96;53.37
13476;BME280;6810;63.824;20.288;2023-05-01T08:41:22;100979.56;;;8.02;53.14
13476;BME280;6810;63.824;20.288;2023-05-01T08:44:09;100980.16;;;8.09;52.81
13476;BME280;6810;63.824;20.288;2023-05-01T08:47:16;100974.63;;;8.13;52.44
13476;BME280;6810;63.824;20.288;2023-05-01T08:50:03;100975.22;;;8.20;52.30
13476;BME280;6810;63.824;20.288;2023-05-01T08:52:56;100982.00;;;8.27;52.19
13476;BME280;6810;63.824;20.288;2023-05-01T08:55:44;100978.09;;;8.35;52.06
13476;BME280;6810;63.824;20.288;2023-05-01T08:58:34;100977.81;;;8.41;51.74
13476;BME280;6810;63.824;20.288;2023-05-01T09:01:22;100975.84;;;8.46;51.60
13476;BME280;6810;63.824;20.288;2023-05-01T09:04:10;100956.50;;;8.43;51.07
13476;BME280;6810;63.824;20.288;2023-05-01T09:06:58;100976.84;;;8.62;51.40
13476;BME280;6810;63.824;20.288;2023-05-01T09:09:46;100982.44;;;8.75;51.07
13476;BME280;6810;63.824;20.288;2023-05-01T09:12:33;100919.19;;;8.46;50.40
13476;BME280;6810;63.824;20.288;2023-05-01T09:15:28;100968.16;;;8.96;50.09
13476;BME280;6810;63.824;20.288;2023-05-01T09:18:15;100968.50;;;9.07;49.65
13476;BME280;6810;63.824;20.288;2023-05-01T09:21:02;100963.75;;;9.14;49.50
13476;BME280;6810;63.824;20.288;2023-05-01T09:23:50;100953.34;;;9.26;49.08
13476;BME280;6810;63.824;20.288;2023-05-01T09:26:38;100949.72;;;9.29;49.05
13476;BME280;6810;63.824;20.288;2023-05-01T09:29:41;100958.88;;;9.40;49.35
13476;BME280;6810;63.824;20.288;2023-05-01T09:32:28;100952.56;;;9.43;48.98
13476;BME280;6810;63.824;20.288;2023-05-01T09:35:15;100955.97;;;9.45;48.87
13476;BME280;6810;63.824;20.288;2023-05-01T09:38:02;100954.03;;;9.48;48.82
13476;BME280;6810;63.824;20.288;2023-05-01T09:40:52;100957.78;;;9.61;47.95
13476;BME280;6810;63.824;20.288;2023-05-01T09:43:40;100951.00;;;9.73;48.22
13476;BME280;6810;63.824;20.288;2023-05-01T09:46:27;100946.00;;;9.84;47.67
13476;BME280;6810;63.824;20.288;2023-05-01T09:49:14;100943.00;;;9.90;46.68
13476;BME280;6810;63.824;20.288;2023-05-01T09:52:11;100939.94;;;9.97;47.05
13476;BME280;6810;63.824;20.288;2023-05-01T09:55:18;100938.53;;;10.07;47.05
13476;BME280;6810;63.824;20.288;2023-05-01T09:58:05;100948.78;;;10.15;47.14
13476;BME280;6810;63.824;20.288;2023-05-01T10:00:52;100941.59;;;10.17;47.66
13476;BME280;6810;63.824;20.288;2023-05-01T10:03:39;100944.50;;;10.12;47.59
13476;BME280;6810;63.824;20.288;2023-05-01T10:06:30;100950.06;;;10.08;47.77
13476;BME280;6810;63.824;20.288;2023-05-01T10:09:26;100936.00;;;10.04;48.37
13476;BME280;6810;63.824;20.288;2023-05-01T10:12:26;100937.38;;;10.13;49.07
13476;BME280;6810;63.824;20.288;2023-05-01T10:15:14;100931.06;;;10.31;49.87
13476;BME280;6810;63.824;20.288;2023-05-01T10:18:01;100936.84;;;10.54;48.74
13476;BME280;6810;63.824;20.288;2023-05-01T10:20:48;100940.06;;;10.77;48.64
13476;BME280;6810;63.824;20.288;2023-05-01T10:23:35;100935.34;;;10.97;49.34
13476;BME280;6810;63.824;20.288;2023-05-01T10:26:22;100928.78;;;11.18;48.42
13476;BME280;6810;63.824;20.288;2023-05-01T10:29:10;100936.69;;;11.35;47.53
13476;BME280;6810;63.824;20.288;2023-05-01T10:31:58;100928.63;;;11.51;47.17
13476;BME280;6810;63.824;20.288;2023-05-01T10:34:50;100926.81;;;11.67;46.97
13476;BME280;6810;63.824;20.288;2023-05-01T10:37:50;100928.38;;;11.85;47.14
13476;BME280;6810;63.824;20.288;2023-05-01T10:40:45;100937.13;;;12.02;46.70
13476;BME280;6810;63.824;20.288;2023-05-01T10:43:32;100930.16;;;12.14;47.06
13476;BME280;6810;63.824;20.288;2023-05-01T10:49:06;100923.19;;;12.40;46.92
13476;BME280;6810;63.824;20.288;2023-05-01T10:54:44;100915.81;;;12.71;45.57
13476;BME280;6810;63.824;20.288;2023-05-01T10:57:41;100911.50;;;12.83;45.30
13476;BME280;6810;63.824;20.288;2023-05-01T11:00:29;100909.50;;;13.00;45.17
13476;BME280;6810;63.824;20.288;2023-05-01T11:06:09;100918.13;;;13.18;44.78
13476;BME280;6810;63.824;20.288;2023-05-01T11:08:57;100919.44;;;13.25;44.29
13476;BME280;6810;63.824;20.288;2023-05-01T11:11:44;100908.22;;;13.32;43.99
13476;BME280;6810;63.824;20.288;2023-05-01T11:23:17;100905.78;;;13.42;44.00
13476;BME280;6810;63.824;20.288;2023-05-01T11:26:05;100909.72;;;13.36;43.70
13476;BME280;6810;63.824;20.288;2023-05-01T11:28:53;100918.78;;;13.21;43.57
13476;BME280;6810;63.824;20.288;2023-05-01T11:31:41;100915.56;;;13.02;43.47
13476;BME280;6810;63.824;20.288;2023-05-01T11:34:34;100916.53;;;12.87;43.84
13476;BME280;6810;63.824;20.288;2023-05-01T11:37:44;100916.75;;;12.84;44.30
13476;BME280;6810;63.824;20.288;2023-05-01T11:40:33;100916.34;;;12.90;44.89
13476;BME280;6810;63.824;20.288;2023-05-01T11:43:20;100888.09;;;12.86;44.63
13476;BME280;6810;63.824;20.288;2023-05-01T11:46:07;100911.25;;;13.14;44.08
13476;BME280;6810;63.824;20.288;2023-05-01T11:48:55;100905.50;;;13.20;43.64
13476;BME280;6810;63.824;20.288;2023-05-01T11:51:43;100891.34;;;13.18;43.65
13476;BME280;6810;63.824;20.288;2023-05-01T11:54:30;100886.09;;;13.16;43.21
13476;BME280;6810;63.824;20.288;2023-05-01T11:57:17;100896.09;;;13.27;43.71
13476;BME280;6810;63.824;20.288;2023-05-01T12:00:05;100889.28;;;13.35;43.23
13476;BME280;6810;63.824;20.288;2023-05-01T12:03:00;100894.75;;;13.46;43.40
13476;BME280;6810;63.824;20.288;2023-05-01T12:05:48;100894.47;;;13.51;43.09
13476;BME280;6810;63.824;20.288;2023-05-01T12:08:35;100888.16;;;13.52;42.12
13476;BME280;6810;63.824;20.288;2023-05-01T12:11:23;100868.28;;;13.29;42.46
13476;BME280;6810;63.824;20.288;2023-05-01T12:14:10;100903.84;;;13.44;42.52
13476;BME280;6810;63.824;20.288;2023-05-01T12:16:58;100895.78;;;13.31;41.69
13476;BME280;6810;63.824;20.288;2023-05-01T12:19:46;100898.66;;;13.16;42.66
13476;BME280;6810;63.824;20.288;2023-05-01T12:22:47;100904.66;;;13.05;42.81
13476;BME280;6810;63.824;20.288;2023-05-01T12:25:36;100896.47;;;12.94;42.57
13476;BME280;6810;63.824;20.288;2023-05-01T12:28:24;100909.22;;;12.77;41.79
13476;BME280;6810;63.824;20.288;2023-05-01T12:31:11;100898.00;;;12.58;43.05
13476;BME280;6810;63.824;20.288;2023-05-01T12:34:04;100877.84;;;12.38;43.21
13476;BME280;6810;63.824;20.288;2023-05-01T12:36:52;100878.31;;;12.31;43.44
13476;BME280;6810;63.824;20.288;2023-05-01T12:39:41;100899.78;;;12.29;42.54
13476;BME280;6810;63.824;20.288;2023-05-01T12:42:28;100903.63;;;12.25;43.24
13476;BME280;6810;63.824;20.288;2023-05-01T12:45:15;100890.06;;;12.28;43.03
13476;BME280;6810;63.824;20.288;2023-05-01T12:48:09;100884.34;;;12.34;43.86
13476;BME280;6810;63.824;20.288;2023-05-01T12:50:57;100877.53;;;12.43;43.75
13476;BME280;6810;63.824;20.288;2023-05-01T12:53:44;100887.38;;;12.56;42.71
13476;BME280;6810;63.824;20.288;2023-05-01T12:56:31;100858.72;;;12.58;42.95
13476;BME280;6810;63.824;20.288;2023-05-01T12:59:24;100826.94;;;12.40;42.92
13476;BME280;6810;63.824;20.288;2023-05-01T13:02:13;100890.47;;;12.77;42.73
13476;BME280;6810;63.824;20.288;2023-05-01T13:05:07;100880.28;;;12.69;42.15
13476;BME280;6810;63.824;20.288;2023-05-01T13:07:55;100882.78;;;12.58;42.14
13476;BME280;6810;63.824;20.288;2023-05-01T13:10:42;100894.06;;;12.49;43.02
13476;BME280;6810;63.824;20.288;2023-05-01T13:13:31;100884.63;;;12.44;42.46
13476;BME280;6810;63.824;20.288;2023-05-01T13:16:20;100894.75;;;12.39;42.74
13476;BME280;6810;63.824;20.288;2023-05-01T13:19:07;100896.75;;;12.35;42.77
13476;BME280;6810;63.824;20.288;2023-05-01T13:21:55;100876.22;;;12.21;42.42
13476;BME280;6810;63.824;20.288;2023-05-01T13:24:42;100887.78;;;12.22;42.52
13476;BME280;6810;63.824;20.288;2023-05-01T13:27:30;100883.66;;;12.16;42.84
13476;BME280;6810;63.824;20.288;2023-05-01T13:30:19;100882.03;;;12.14;43.45
13476;BME280;6810;63.824;20.288;2023-05-01T13:33:09;100883.09;;;12.11;43.06
13476;BME280;6810;63.824;20.288;2023-05-01T13:35:56;100865.25;;;11.98;43.23
13476;BME280;6810;63.824;20.288;2023-05-01T13:38:55;100891.97;;;12.12;43.52
13476;BME280;6810;63.824;20.288;2023-05-01T13:41:44;100886.81;;;12.09;43.64
13476;BME280;6810;63.824;20.288;2023-05-01T13:44:31;100877.38;;;12.03;42.68
13476;BME280;6810;63.824;20.288;2023-05-01T13:47:18;100856.25;;;11.85;43.27
13476;BME280;6810;63.824;20.288;2023-05-01T13:50:09;100852.91;;;11.81;43.14
13476;BME280;6810;63.824;20.288;2023-05-01T13:52:59;100884.53;;;11.89;43.51
13476;BME280;6810;63.824;20.288;2023-05-01T13:55:46;100871.59;;;11.81;43.43
13476;BME280;6810;63.824;20.288;2023-05-01T13:58:33;100873.81;;;11.75;43.55
13476;BME280;6810;63.824;20.288;2023-05-01T14:01:21;100879.53;;;11.69;43.15
13476;BME280;6810;63.824;20.288;2023-05-01T14:04:08;100877.03;;;11.66;43.98
13476;BME280;6810;63.824;20.288;2023-05-01T14:06:56;100882.38;;;11.66;43.30
13476;BME280;6810;63.824;20.288;2023-05-01T14:09:43;100879.91;;;11.63;43.39
13476;BME280;6810;63.824;20.288;2023-05-01T14:12:31;100874.47;;;11.64;44.31
13476;BME280;6810;63.824;20.288;2023-05-01T14:15:18;100879.72;;;11.66;44.37
13476;BME280;6810;63.824;20.288;2023-05-01T14:18:05;100876.78;;;11.70;44.32
13476;BME280;6810;63.824;20.288;2023-05-01T14:20:53;100879.16;;;11.75;44.58
13476;BME280;6810;63.824;20.288;2023-05-01T14:23:40;100871.81;;;11.78;43.61
13476;BME280;6810;63.824;20.288;2023-05-01T14:26:30;100878.59;;;11.84;44.36
13476;BME280;6810;63.824;20.288;2023-05-01T14:29:25;100880.31;;;11.85;44.28
13476;BME280;6810;63.824;20.288;2023-05-01T14:32:14;100875.44;;;11.77;43.01
13476;BME280;6810;63.824;20.288;2023-05-01T14:35:07;100872.44;;;11.68;43.01
13476;BME280;6810;63.824;20.288;2023-05-01T14:37:54;100880.97;;;11.59;43.90
13476;BME280;6810;63.824;20.288;2023-05-01T14:40:42;100870.84;;;11.50;44.02
13476;BME280;6810;63.824;20.288;2023-05-01T14:43:30;100881.81;;;11.45;43.26
13476;BME280;6810;63.824;20.288;2023-05-01T14:46:34;100858.78;;;11.29;43.69
13476;BME280;6810;63.824;20.288;2023-05-01T14:49:22;100878.72;;;11.37;43.50
13476;BME280;6810;63.824;20.288;2023-05-01T14:52:18;100875.59;;;11.31;44.36
13476;BME280;6810;63.824;20.288;2023-05-01T14:55:07;100888.22;;;11.27;43.88
13476;BME280;6810;63.824;20.288;2023-05-01T14:57:55;100883.06;;;11.24;44.44
13476;BME280;6810;63.824;20.288;2023-05-01T15:00:42;100884.88;;;11.24;44.05
13476;BME280;6810;63.824;20.288;2023-05-01T15:03:30;100882.91;;;11.27;44.28
13476;BME280;6810;63.824;20.288;2023-05-01T15:06:17;100864.31;;;11.26;44.60
13476;BME280;6810;63.824;20.288;2023-05-01T15:09:04;100877.72;;;11.40;43.96
13476;BME280;6810;63.824;20.288;2023-05-01T15:11:51;100869.59;;;11.41;43.71
13476;BME280;6810;63.824;20.288;2023-05-01T15:14:38;100868.28;;;11.48;44.94
13476;BME280;6810;63.824;20.288;2023-05-01T15:17:26;100866.03;;;11.56;44.90
13476;BME280;6810;63.824;20.288;2023-05-01T15:20:13;100866.47;;;11.64;44.95
13476;BME280;6810;63.824;20.288;2023-05-01T15:23:00;100862.63;;;11.68;43.90
13476;BME280;6810;63.824;20.288;2023-05-01T15:25:47;100864.25;;;11.71;44.06
13476;BME280;6810;63.824;20.288;2023-05-01T15:28:34;100870.00;;;11.79;44.93
13476;BME280;6810;63.824;20.288;2023-05-01T15:31:21;100873.25;;;11.84;44.86
13476;BME280;6810;63.824;20.288;2023-05-01T15:34:08;100872.09;;;11.88;43.89
13476;BME280;6810;63.824;20.288;2023-05-01T15:36:55;100869.94;;;11.94;44.27
13476;BME280;6810;63.824;20.288;2023-05-01T15:39:44;100867.34;;;11.93;44.46
13476;BME280;6810;63.824;20.288;2023-05-01T15:42:31;100876.03;;;11.96;43.38
13476;BME280;6810;63.824;20.288;2023-05-01T15:45:18;100863.25;;;11.87;44.61
13476;BME280;6810;63.824;20.288;2023-05-01T15:48:05;100873.38;;;11.96;43.89
13476;BME280;6810;63.824;20.288;2023-05-01T15:50:52;100859.53;;;11.90;44.80
13476;BME280;6810;63.824;20.288;2023-05-01T15:53:40;100848.84;;;11.90;44.73
13476;BME280;6810;63.824;20.288;2023-05-01T15:56:33;100876.50;;;12.17;44.14
13476;BME280;6810;63.824;20.288;2023-05-01T15:59:20;100875.19;;;12.24;44.15
13476;BME280;6810;63.824;20.288;2023-05-01T16:02:07;100880.34;;;12.27;43.28
13476;BME280;6810;63.824;20.288;2023-05-01T16:04:54;100874.22;;;12.25;42.98
13476;BME280;6810;63.824;20.288;2023-05-01T16:07:43;100870.88;;;12.21;42.39
13476;BME280;6810;63.824;20.288;2023-05-01T16:10:33;100872.88;;;12.18;42.91
13476;BME280;6810;63.824;20.288;2023-05-01T16:13:23;100880.34;;;12.13;43.12
13476;BME280;6810;63.824;20.288;2023-05-01T16:16:11;100839.28;;;11.86;42.49
13476;BME280;6810;63.824;20.288;2023-05-01T16:18:59;100875.47;;;12.05;43.52
13476;BME280;6810;63.824;20.288;2023-05-01T16:21:46;100873.72;;;12.04;43.23
13476;BME280;6810;63.824;20.288;2023-05-01T16:24:33;100852.06;;;11.81;43.10
13476;BME280;6810;63.824;20.288;2023-05-01T16:27:21;100873.66;;;11.92;43.08
13476;BME280;6810;63.824;20.288;2023-05-01T16:30:09;100877.25;;;11.91;42.60
13476;BME280;6810;63.824;20.288;2023-05-01T16:32:57;100877.16;;;11.92;43.52
13476;BME280;6810;63.824;20.288;2023-05-01T16:35:46;100877.06;;;11.94;43.52
13476;BME280;6810;63.824;20.288;2023-05-01T16:38:34;100875.94;;;11.98;44.28
13476;BME280;6810;63.824;20.288;2023-05-01T16:41:21;100867.16;;;11.96;43.78
13476;BME280;6810;63.824;20.288;2023-05-01T16:44:08;100870.31;;;12.02;43.24
13476;BME280;6810;63.824;20.288;2023-05-01T16:46:56;100880.03;;;12.03;43.15
13476;BME280;6810;63.824;20.288;2023-05-01T16:49:46;100870.97;;;11.92;44.23
13476;BME280;6810;63.824;20.288;2023-05-01T16:52:33;100880.03;;;12.03;43.46
13476;BME280;6810;63.824;20.288;2023-05-01T16:55:21;100862.00;;;11.93;43.82
13476;BME280;6810;63.824;20.288;2023-05-01T16:58:08;100875.56;;;12.04;43.79
13476;BME280;6810;63.824;20.288;2023-05-01T17:00:56;100883.69;;;12.02;43.88
13476;BME280;6810;63.824;20.288;2023-05-01T17:03:43;100874.41;;;11.94;43.95
13476;BME280;6810;63.824;20.288;2023-05-01T17:06:30;100881.75;;;11.90;43.79
13476;BME280;6810;63.824;20.288;2023-05-01T17:09:23;100885.16;;;11.78;44.47
13476;BME280;6810;63.824;20.288;2023-05-01T17:12:11;100880.56;;;11.66;44.24
13476;BME280;6810;63.824;20.288;2023-05-01T17:14:58;100876.09;;;11.51;44.27
13476;BME280;6810;63.824;20.288;2023-05-01T17:17:45;100873.97;;;11.42;44.77
13476;BME280;6810;63.824;20.288;2023-05-01T17:20:32;100873.38;;;11.37;45.84
13476;BME280;6810;63.824;20.288;2023-05-01T17:23:20;100878.34;;;11.29;45.29
13476;BME280;6810;63.824;20.288;2023-05-01T17:26:07;100880.69;;;11.20;45.07
13476;BME280;6810;63.824;20.288;2023-05-01T17:28:55;100877.94;;;11.06;46.30
13476;BME280;6810;63.824;20.288;2023-05-01T17:31:42;100875.38;;;10.89;46.35
13476;BME280;6810;63.824;20.288;2023-05-01T17:34:29;100876.00;;;10.78;45.45
13476;BME280;6810;63.824;20.288;2023-05-01T17:37:16;100884.78;;;10.65;46.54
13476;BME280;6810;63.824;20.288;2023-05-01T17:40:03;100878.47;;;10.50;46.79
13476;BME280;6810;63.824;20.288;2023-05-01T17:42:50;100881.06;;;10.36;46.43
13476;BME280;6810;63.824;20.288;2023-05-01T17:45:38;100882.56;;;10.24;47.41
13476;BME280;6810;63.824;20.288;2023-05-01T17:48:25;100889.59;;;10.10;46.92
13476;BME280;6810;63.824;20.288;2023-05-01T17:51:14;100862.66;;;9.82;47.35
13476;BME280;6810;63.824;20.288;2023-05-01T17:54:01;100844.22;;;9.62;47.76
13476;BME280;6810;63.824;20.288;2023-05-01T17:56:48;100887.19;;;9.71;47.22
13476;BME280;6810;63.824;20.288;2023-05-01T17:59:35;100881.56;;;9.60;48.10
13476;BME280;6810;63.824;20.288;2023-05-01T18:02:24;100888.47;;;9.47;48.05
13476;BME280;6810;63.824;20.288;2023-05-01T18:05:11;100886.44;;;9.35;48.55
13476;BME280;6810;63.824;20.288;2023-05-01T18:07:59;100888.69;;;9.26;48.48
13476;BME280;6810;63.824;20.288;2023-05-01T18:10:45;100860.75;;;9.00;48.34
13476;BME280;6810;63.824;20.288;2023-05-01T18:13:32;100889.84;;;9.03;48.52
13476;BME280;6810;63.824;20.288;2023-05-01T18:16:19;100878.84;;;8.92;49.01
13476;BME280;6810;63.824;20.288;2023-05-01T18:19:07;100889.78;;;8.86;49.79
13476;BME280;6810;63.824;20.288;2023-05-01T18:21:54;100898.22;;;8.77;49.49
13476;BME280;6810;63.824;20.288;2023-05-01T18:24:41;100894.25;;;8.67;49.73
13476;BME280;6810;63.824;20.288;2023-05-01T18:27:28;100892.09;;;8.56;49.91
13476;BME280;6810;63.824;20.288;2023-05-01T18:30:15;100888.09;;;8.48;50.03
13476;BME280;6810;63.824;20.288;2023-05-01T18:33:02;100893.84;;;8.39;50.35
13476;BME280;6810;63.824;20.288;2023-05-01T18:35:50;100892.47;;;8.30;50.43
13476;BME280;6810;63.824;20.288;2023-05-01T18:38:37;100897.25;;;8.22;50.86
13476;BME280;6810;63.824;20.288;2023-05-01T18:41:24;100895.13;;;8.10;50.98
13476;BME280;6810;63.824;20.288;2023-05-01T18:44:11;100897.41;;;7.99;51.33
13476;BME280;6810;63.824;20.288;2023-05-01T18:46:58;100893.50;;;7.88;51.59
13476;BME280;6810;63.824;20.288;2023-05-01T18:49:45;100890.53;;;7.75;51.49
13476;BME280;6810;63.824;20.288;2023-05-01T18:52:32;100893.84;;;7.60;52.11
13476;BME280;6810;63.824;20.288;2023-05-01T18:55:19;100904.81;;;7.53;51.82
13476;BME280;6810;63.824;20.288;2023-05-01T18:58:07;100901.66;;;7.43;52.38
13476;BME280;6810;63.824;20.288;2023-05-01T19:00:54;100850.22;;;7.07;53.13
13476;BME280;6810;63.824;20.288;2023-05-01T19:03:41;100900.66;;;7.26;53.09
13476;BME280;6810;63.824;20.288;2023-05-01T19:06:28;100902.78;;;7.18;53.60
13476;BME280;6810;63.824;20.288;2023-05-01T19:09:15;100903.09;;;7.10;53.43
13476;BME280;6810;63.824;20.288;2023-05-01T19:12:02;100898.94;;;7.03;54.30
13476;BME280;6810;63.824;20.288;2023-05-01T19:14:49;100892.19;;;6.96;54.34
13476;BME280;6810;63.824;20.288;2023-05-01T19:17:36;100890.72;;;6.89;53.81
13476;BME280;6810;63.824;20.288;2023-05-01T19:20:24;100872.97;;;6.69;55.07
13476;BME280;6810;63.824;20.288;2023-05-01T19:23:11;100892.25;;;6.73;54.23
13476;BME280;6810;63.824;20.288;2023-05-01T19:25:58;100884.03;;;6.57;55.23
13476;BME280;6810;63.824;20.288;2023-05-01T19:28:45;100885.03;;;6.55;55.84
13476;BME280;6810;63.824;20.288;2023-05-01T19:31:32;100885.28;;;6.49;56.02
13476;BME280;6810;63.824;20.288;2023-05-01T19:34:19;100851.94;;;6.22;56.08
13476;BME280;6810;63.824;20.288;2023-05-01T19:37:07;100882.16;;;6.38;56.46
13476;BME280;6810;63.824;20.288;2023-05-01T19:39:54;100878.16;;;6.28;56.02
13476;BME280;6810;63.824;20.288;2023-05-01T19:42:41;100879.19;;;6.24;56.95
13476;BME280;6810;63.824;20.288;2023-05-01T19:45:28;100874.34;;;6.12;56.92
13476;BME280;6810;63.824;20.288;2023-05-01T19:48:16;100857.97;;;6.02;56.47
13476;BME280;6810;63.824;20.288;2023-05-01T19:51:03;100876.41;;;6.04;57.11
13476;BME280;6810;63.824;20.288;2023-05-01T19:53:50;100871.41;;;5.96;57.00
13476;BME280;6810;63.824;20.288;2023-05-01T19:56:37;100851.78;;;5.79;56.73
13476;BME280;6810;63.824;20.288;2023-05-01T19:59:24;100874.28;;;5.90;57.56
13476;BME280;6810;63.824;20.288;2023-05-01T20:02:11;100871.03;;;5.84;57.78
13476;BME280;6810;63.824;20.288;2023-05-01T20:04:58;100849.69;;;5.64;58.68
13476;BME280;6810;63.824;20.288;2023-05-01T20:07:45;100855.78;;;5.66;57.56
13476;BME280;6810;63.824;20.288;2023-05-01T20:10:32;100870.69;;;5.68;58.26
13476;BME280;6810;63.824;20.288;2023-05-01T20:13:19;100857.03;;;5.56;59.17
13476;BME280;6810;63.824;20.288;2023-05-01T20:16:07;100878.78;;;5.64;58.18
13476;BME280;6810;63.824;20.288;2023-05-01T20:18:54;100878.84;;;5.62;58.62
13476;BME280;6810;63.824;20.288;2023-05-01T20:21:41;100878.88;;;5.61;58.88
13476;BME280;6810;63.824;20.288;2023-05-01T20:24:28;100884.22;;;5.59;59.32
13476;BME280;6810;63.824;20.288;2023-05-01T20:27:15;100888.75;;;5.56;59.67
13476;BME280;6810;63.824;20.288;2023-05-01T20:30:02;100891.50;;;5.53;58.61
13476;BME280;6810;63.824;20.288;2023-05-01T20:32:49;100882.97;;;5.45;58.57
13476;BME280;6810;63.824;20.288;2023-05-01T20:35:37;100863.28;;;5.28;59.87
13476;BME280;6810;63.824;20.288;2023-05-01T20:38:26;100888.31;;;5.43;59.27
13476;BME280;6810;63.824;20.288;2023-05-01T20:41:13;100894.59;;;5.41;59.95
13476;BME280;6810;63.824;20.288;2023-05-01T20:44:00;100884.22;;;5.34;60.22
13476;BME280;6810;63.824;20.288;2023-05-01T20:46:47;100886.91;;;5.33;59.13
13476;BME280;6810;63.824;20.288;2023-05-01T20:49:58;100887.97;;;5.27;59.45
13476;BME280;6810;63.824;20.288;2023-05-01T20:52:45;100895.09;;;5.25;60.52
13476;BME280;6810;63.824;20.288;2023-05-01T20:55:33;100888.22;;;5.20;59.38
13476;BME280;6810;63.824;20.288;2023-05-01T20:58:19;100862.50;;;5.00;60.43
13476;BME280;6810;63.824;20.288;2023-05-01T21:01:07;100867.78;;;5.00;60.30